Flight Track Log - Related Links

Times and Time Zones

All times are in EDT time to prevent confusion due to time zone crossing. See the EJA606 flight status page for this flight to view local times or setup timezone preferences in your user account.


Time Position Orientation Groundspeed Altitude Reporting Facility
EDT Latitude Longitude Course Direction KTS MPH feet Rate Location/Type
Sat 05:55:18 PM 30.3694 -97.2828 95° East 296 341 8,900  Level Houston Center
Sat 05:59:18 PM 30.3397 -96.8797 95° East 338 389 17,800 2,260 Climbing Houston Center
Sat 06:00:18 PM 30.3317 -96.7636 94° East 358 412 20,200 2,250 Climbing Houston Center
Sat 06:01:18 PM 30.3236 -96.6456 94° East 364 419 22,300 2,000 Climbing Houston Center
Sat 06:02:18 PM 30.3172 -96.5275 93° East 371 427 24,200 1,700 Climbing Houston Center
Sat 06:03:18 PM 30.3114 -96.4019 94° East 376 433 25,700 1,400 Climbing Houston Center
Sat 06:04:18 PM 30.3031 -96.2767 94° East 387 445 27,000 1,550 Climbing Houston Center
Sat 06:05:18 PM 30.2950 -96.1514 95° East 387 445 28,800 1,950 Climbing Houston Center
Sat 06:06:18 PM 30.2861 -96.0403 92° East 392 451 30,900 1,750 Climbing Houston Center
Sat 06:07:18 PM 30.2819 -95.9078 92° East 380 437 32,300 1,200 Climbing Houston Center
Sat 06:08:18 PM 30.2775 -95.7756 92° East 391 450 33,300 1,300 Climbing Houston Center
Sat 06:09:18 PM 30.2733 -95.6406 92° East 403 464 34,900 2,850 Climbing Houston Center
Sat 06:10:18 PM 30.2686 -95.5106 92° East 408 470 39,000 1,550 Climbing Houston Center
Sat 06:11:18 PM 30.2642 -95.3758 94° East 408 470 38,000  Descending Houston Center
Sat 06:12:18 PM 30.2572 -95.2458 93° East 408 470 39,000 500 Climbing Houston Center
Sat 06:13:18 PM 30.2503 -95.1061 92° East 413 475 39,000  Level Houston Center
Sat 06:14:18 PM 30.2456 -94.9667 93° East 424 488 39,000  Level Houston Center
Sat 06:15:18 PM 30.2403 -94.8319 94° East 424 488 39,000  Level Houston Center
Sat 06:16:18 PM 30.2328 -94.7019 94° East 418 481 39,000  Level Houston Center
Sat 06:17:18 PM 30.2253 -94.5694 94° East 413 475 39,000  Level Houston Center
Sat 06:18:18 PM 30.2175 -94.4442 93° East 400 460 39,000  Level Houston Center
Sat 06:19:18 PM 30.2100 -94.3022 94° East 395 455 39,000  Level Houston Center
Sat 06:20:18 PM 30.2019 -94.1747 93° East 395 455 39,000  Level Houston Center
Sat 06:21:18 PM 30.1958 -94.0472 94° East 401 461 39,000  Level Houston Center
Sat 06:22:18 PM 30.1878 -93.9172 94° East 401 461 39,000  Level Houston Center
Sat 06:23:18 PM 30.1794 -93.7872 94° East 407 468 39,000  Level Houston Center
Sat 06:24:18 PM 30.1708 -93.6550 94° East 407 468 39,000  Level Houston Center
Sat 06:25:18 PM 30.1625 -93.5203 94° East 412 474 39,000  Level Houston Center
Sat 06:26:18 PM 30.1536 -93.3881 93° East 412 474 39,000  Level Houston Center
Sat 06:27:18 PM 30.1469 -93.2558 93° East 412 474 39,000  Level Houston Center
Sat 06:28:18 PM 30.1400 -93.1236 87° East 407 468 39,000  Level Houston Center
Sat 06:29:18 PM 30.1456 -92.9942 86° East 407 468 39,000  Level Houston Center
Sat 06:30:18 PM 30.1531 -92.8597 87° East 402 463 39,000  Level Houston Center
Sat 06:31:18 PM 30.1583 -92.7300 87° East 402 463 39,000  Level Houston Center
Sat 06:32:18 PM 30.1636 -92.6003 85° East 402 463 39,000 -250 Level Houston Center
Sat 06:33:18 PM 30.1728 -92.4683 87° East 402 463 38,500 -1,200 Descending Houston Center
Sat 06:34:18 PM 30.1797 -92.3314 88° East 408 470 36,600 -2,050 Descending Houston Center
Sat 06:35:18 PM 30.1844 -92.1872 87° East 428 493 34,400 -2,400 Descending Houston Center
Sat 06:36:18 PM 30.1914 -92.0408 93° East 440 506 31,800 -2,550 Descending Houston Center
Sat 06:37:18 PM 30.1853 -91.8942 95° East 440 506 29,300 -2,450 Descending Houston Center
Sat 06:38:18 PM 30.1750 -91.7522 96° East 445 512 26,900 -2,500 Descending Houston Center
Sat 06:39:18 PM 30.1625 -91.6106 94° East 445 512 24,300 -2,550 Descending Houston Center
Sat 06:40:18 PM 30.1542 -91.4736 95° East 440 506 21,800 -2,450 Descending Houston Center
Sat 06:41:18 PM 30.1433 -91.3417 94° East 429 494 19,400 -2,450 Descending Houston Center
Sat 06:42:18 PM 30.1347 -91.2144 87° East 408 470 16,900 -2,598 Descending Houston Center
Sat 06:42:55 PM 30.1386 -91.1375 84° East 391 450 15,200 -1,959 Descending Houston Center
Sat 06:43:56 PM 30.1486 -91.0172 91° East 382 440 13,700 -1,266 Descending Houston Center
Sat 06:45:03 PM 30.1458 -90.8781 96° East 367 422 12,500 -1,039 Descending Houston Center
Sat 06:46:03 PM 30.1367 -90.7700 98° East 340 391 11,500 -1,148 Descending Houston Center
Sat 06:46:58 PM 30.1256 -90.6742 97° East 326 375 10,300 -1,707 Descending Houston Center
Sat 06:47:59 PM 30.1167 -90.5878 98° East 280 322 8,200 -2,016 Descending Houston Center
Sat 06:49:00 PM 30.1056 -90.4989 87° East 277 319 6,200 -1,785 Descending Houston Center
Sat 06:50:00 PM 30.1089 -90.4125 69° East 274 315 4,600 -1,587 Descending Houston Center
Sat 06:51:01 PM 30.1353 -90.3331 63° Northeast 260 299 3,000 -1,279 Descending Houston Center
Sat 06:52:02 PM 30.1658 -90.2631 86° East 256 295 2,000 -492 Descending Houston Center
Sat 06:53:03 PM 30.1711 -90.1811 113° Southeast 255 293 2,000  Level Houston Center
Sat 06:54:10 PM 30.1389 -90.0928 120° Southeast 247 284 2,000 -311 Level Houston Center
Sat 06:55:18 PM 30.1111 -90.0381 168° South 208 239 1,300 -703 Descending Houston Center
Sat 06:56:18 PM 30.0733 -90.0289 173° South 159 183 500 -600 Descending Houston Center
Sat 06:57:18 PM 30.0422 -90.0247 274° West 133 153 100 -400 Descending Houston Center

Login

Don't have an account? Register now (free) for customized features, flight alerts, and more!